sensor_id;sensor_type;location;lat;lon;timestamp;P1;durP1;ratioP1;P2;durP2;ratioP2
24145;SDS011;12308;50.948;4.706;2022-09-16T00:00:35;13.95;;;2.22;;
24145;SDS011;12308;50.948;4.706;2022-09-16T00:03:01;10.55;;;1.67;;
24145;SDS011;12308;50.948;4.706;2022-09-16T00:05:27;9.57;;;1.58;;
24145;SDS011;12308;50.948;4.706;2022-09-16T00:07:53;9.25;;;1.88;;
24145;SDS011;12308;50.948;4.706;2022-09-16T00:10:20;15.02;;;1.67;;
24145;SDS011;12308;50.948;4.706;2022-09-16T00:12:46;8.60;;;1.90;;
24145;SDS011;12308;50.948;4.706;2022-09-16T00:15:12;11.63;;;1.80;;
24145;SDS011;12308;50.948;4.706;2022-09-16T00:17:38;8.43;;;1.85;;
24145;SDS011;12308;50.948;4.706;2022-09-16T00:20:05;9.95;;;1.85;;
24145;SDS011;12308;50.948;4.706;2022-09-16T00:22:31;7.38;;;1.60;;
24145;SDS011;12308;50.948;4.706;2022-09-16T00:24:57;11.18;;;2.05;;
24145;SDS011;12308;50.948;4.706;2022-09-16T00:27:23;11.13;;;1.83;;
24145;SDS011;12308;50.948;4.706;2022-09-16T00:29:49;8.85;;;1.90;;
24145;SDS011;12308;50.948;4.706;2022-09-16T00:32:14;7.30;;;1.75;;
24145;SDS011;12308;50.948;4.706;2022-09-16T00:34:40;12.07;;;2.13;;
24145;SDS011;12308;50.948;4.706;2022-09-16T00:37:06;10.23;;;2.00;;
24145;SDS011;12308;50.948;4.706;2022-09-16T00:39:33;12.70;;;2.40;;
24145;SDS011;12308;50.948;4.706;2022-09-16T00:41:59;6.53;;;1.60;;
24145;SDS011;12308;50.948;4.706;2022-09-16T00:47:27;9.70;;;1.75;;
24145;SDS011;12308;50.948;4.706;2022-09-16T00:53:15;11.98;;;2.13;;
24145;SDS011;12308;50.948;4.706;2022-09-16T00:55:44;7.40;;;1.90;;
24145;SDS011;12308;50.948;4.706;2022-09-16T00:58:57;5.05;;;1.60;;
24145;SDS011;12308;50.948;4.706;2022-09-16T01:01:05;12.45;;;2.50;;
24145;SDS011;12308;50.948;4.706;2022-09-16T01:03:34;11.15;;;1.73;;
24145;SDS011;12308;50.948;4.706;2022-09-16T01:06:06;12.73;;;2.67;;
24145;SDS011;12308;50.948;4.706;2022-09-16T01:08:35;11.50;;;2.10;;
24145;SDS011;12308;50.948;4.706;2022-09-16T01:11:01;12.63;;;1.65;;
24145;SDS011;12308;50.948;4.706;2022-09-16T01:13:27;11.32;;;2.08;;
24145;SDS011;12308;50.948;4.706;2022-09-16T01:15:57;10.35;;;1.95;;
24145;SDS011;12308;50.948;4.706;2022-09-16T01:34:52;12.43;;;2.20;;
24145;SDS011;12308;50.948;4.706;2022-09-16T01:37:45;12.93;;;2.13;;
24145;SDS011;12308;50.948;4.706;2022-09-16T01:45:56;13.27;;;1.83;;
24145;SDS011;12308;50.948;4.706;2022-09-16T01:48:36;12.50;;;2.22;;
24145;SDS011;12308;50.948;4.706;2022-09-16T01:56:41;19.52;;;2.65;;
24145;SDS011;12308;50.948;4.706;2022-09-16T01:59:19;6.20;;;1.85;;
24145;SDS011;12308;50.948;4.706;2022-09-16T02:01:52;12.95;;;2.80;;
24145;SDS011;12308;50.948;4.706;2022-09-16T02:04:28;11.77;;;1.90;;
24145;SDS011;12308;50.948;4.706;2022-09-16T02:07:02;16.90;;;2.97;;
24145;SDS011;12308;50.948;4.706;2022-09-16T02:09:32;10.35;;;2.25;;
24145;SDS011;12308;50.948;4.706;2022-09-16T02:12:04;5.90;;;1.95;;
24145;SDS011;12308;50.948;4.706;2022-09-16T02:17:06;7.78;;;2.15;;
24145;SDS011;12308;50.948;4.706;2022-09-16T02:22:02;9.25;;;1.85;;
24145;SDS011;12308;50.948;4.706;2022-09-16T02:24:32;13.70;;;1.88;;
24145;SDS011;12308;50.948;4.706;2022-09-16T02:27:01;14.82;;;2.30;;
24145;SDS011;12308;50.948;4.706;2022-09-16T02:29:36;14.65;;;2.10;;
24145;SDS011;12308;50.948;4.706;2022-09-16T02:32:07;7.47;;;1.60;;
24145;SDS011;12308;50.948;4.706;2022-09-16T02:34:41;7.10;;;2.10;;
24145;SDS011;12308;50.948;4.706;2022-09-16T02:37:12;10.98;;;1.65;;
24145;SDS011;12308;50.948;4.706;2022-09-16T02:39:43;10.63;;;1.92;;
24145;SDS011;12308;50.948;4.706;2022-09-16T02:42:12;8.57;;;1.77;;
24145;SDS011;12308;50.948;4.706;2022-09-16T02:44:38;10.40;;;2.38;;
24145;SDS011;12308;50.948;4.706;2022-09-16T02:47:27;6.13;;;1.60;;
24145;SDS011;12308;50.948;4.706;2022-09-16T02:49:59;12.48;;;2.08;;
24145;SDS011;12308;50.948;4.706;2022-09-16T02:52:38;9.07;;;1.98;;
24145;SDS011;12308;50.948;4.706;2022-09-16T02:55:23;9.18;;;1.90;;
24145;SDS011;12308;50.948;4.706;2022-09-16T02:58:10;8.60;;;1.50;;
24145;SDS011;12308;50.948;4.706;2022-09-16T03:00:37;8.55;;;1.75;;
24145;SDS011;12308;50.948;4.706;2022-09-16T03:03:07;9.45;;;1.80;;
24145;SDS011;12308;50.948;4.706;2022-09-16T03:05:33;7.88;;;1.48;;
24145;SDS011;12308;50.948;4.706;2022-09-16T03:07:59;10.95;;;2.15;;
24145;SDS011;12308;50.948;4.706;2022-09-16T03:10:34;8.00;;;2.00;;
24145;SDS011;12308;50.948;4.706;2022-09-16T03:13:21;11.73;;;1.90;;
24145;SDS011;12308;50.948;4.706;2022-09-16T03:16:08;9.18;;;1.70;;
24145;SDS011;12308;50.948;4.706;2022-09-16T03:19:08;12.38;;;1.70;;
24145;SDS011;12308;50.948;4.706;2022-09-16T03:27:18;9.48;;;2.10;;
24145;SDS011;12308;50.948;4.706;2022-09-16T03:29:58;7.05;;;1.33;;
24145;SDS011;12308;50.948;4.706;2022-09-16T03:32:30;10.18;;;1.63;;
24145;SDS011;12308;50.948;4.706;2022-09-16T03:38:07;7.45;;;1.40;;
24145;SDS011;12308;50.948;4.706;2022-09-16T03:40:36;10.38;;;1.77;;
24145;SDS011;12308;50.948;4.706;2022-09-16T03:43:09;7.60;;;1.60;;
24145;SDS011;12308;50.948;4.706;2022-09-16T03:45:43;11.40;;;1.60;;
24145;SDS011;12308;50.948;4.706;2022-09-16T03:48:09;7.75;;;1.60;;
24145;SDS011;12308;50.948;4.706;2022-09-16T03:50:36;9.88;;;1.73;;
24145;SDS011;12308;50.948;4.706;2022-09-16T03:53:01;5.00;;;1.70;;
24145;SDS011;12308;50.948;4.706;2022-09-16T03:55:27;9.05;;;1.88;;
24145;SDS011;12308;50.948;4.706;2022-09-16T03:57:53;8.13;;;1.95;;
24145;SDS011;12308;50.948;4.706;2022-09-16T04:00:19;6.32;;;1.60;;
24145;SDS011;12308;50.948;4.706;2022-09-16T04:02:46;11.73;;;2.22;;
24145;SDS011;12308;50.948;4.706;2022-09-16T04:05:11;7.60;;;1.88;;
24145;SDS011;12308;50.948;4.706;2022-09-16T04:07:37;7.18;;;1.70;;
24145;SDS011;12308;50.948;4.706;2022-09-16T04:10:03;6.72;;;1.52;;
24145;SDS011;12308;50.948;4.706;2022-09-16T04:12:29;9.20;;;1.70;;
24145;SDS011;12308;50.948;4.706;2022-09-16T04:14:55;10.00;;;1.70;;
24145;SDS011;12308;50.948;4.706;2022-09-16T04:17:21;9.52;;;1.58;;
24145;SDS011;12308;50.948;4.706;2022-09-16T04:19:47;11.40;;;1.70;;
24145;SDS011;12308;50.948;4.706;2022-09-16T04:22:13;8.18;;;1.80;;
24145;SDS011;12308;50.948;4.706;2022-09-16T04:24:39;12.98;;;1.60;;
24145;SDS011;12308;50.948;4.706;2022-09-16T04:27:05;8.05;;;1.73;;
24145;SDS011;12308;50.948;4.706;2022-09-16T04:29:30;6.57;;;1.20;;
24145;SDS011;12308;50.948;4.706;2022-09-16T04:31:56;11.23;;;1.92;;
24145;SDS011;12308;50.948;4.706;2022-09-16T04:34:23;13.10;;;1.80;;
24145;SDS011;12308;50.948;4.706;2022-09-16T04:36:48;14.43;;;2.08;;
24145;SDS011;12308;50.948;4.706;2022-09-16T04:39:14;17.83;;;1.50;;
24145;SDS011;12308;50.948;4.706;2022-09-16T04:41:39;8.40;;;1.98;;
24145;SDS011;12308;50.948;4.706;2022-09-16T04:44:05;7.70;;;1.50;;
24145;SDS011;12308;50.948;4.706;2022-09-16T04:46:31;10.00;;;1.60;;
24145;SDS011;12308;50.948;4.706;2022-09-16T04:48:57;11.73;;;1.90;;
24145;SDS011;12308;50.948;4.706;2022-09-16T04:51:24;7.68;;;1.58;;
24145;SDS011;12308;50.948;4.706;2022-09-16T04:53:52;9.90;;;1.60;;
24145;SDS011;12308;50.948;4.706;2022-09-16T04:56:20;9.27;;;1.63;;
24145;SDS011;12308;50.948;4.706;2022-09-16T04:58:48;4.70;;;1.30;;
24145;SDS011;12308;50.948;4.706;2022-09-16T05:01:17;9.13;;;1.50;;
24145;SDS011;12308;50.948;4.706;2022-09-16T05:03:48;10.35;;;1.60;;
24145;SDS011;12308;50.948;4.706;2022-09-16T05:06:16;8.07;;;1.20;;
24145;SDS011;12308;50.948;4.706;2022-09-16T05:08:43;9.15;;;1.27;;
24145;SDS011;12308;50.948;4.706;2022-09-16T05:11:10;5.78;;;1.10;;
24145;SDS011;12308;50.948;4.706;2022-09-16T05:13:44;7.70;;;1.20;;
24145;SDS011;12308;50.948;4.706;2022-09-16T05:16:11;4.82;;;1.10;;
24145;SDS011;12308;50.948;4.706;2022-09-16T05:18:38;5.30;;;0.95;;
24145;SDS011;12308;50.948;4.706;2022-09-16T05:21:06;6.65;;;1.05;;
24145;SDS011;12308;50.948;4.706;2022-09-16T05:23:34;8.60;;;1.27;;
24145;SDS011;12308;50.948;4.706;2022-09-16T05:26:05;8.40;;;1.08;;
24145;SDS011;12308;50.948;4.706;2022-09-16T05:28:33;7.53;;;1.45;;
24145;SDS011;12308;50.948;4.706;2022-09-16T05:31:10;6.63;;;1.35;;
24145;SDS011;12308;50.948;4.706;2022-09-16T05:33:44;5.18;;;0.70;;
24145;SDS011;12308;50.948;4.706;2022-09-16T05:36:15;11.13;;;1.10;;
24145;SDS011;12308;50.948;4.706;2022-09-16T05:38:42;9.13;;;1.00;;
24145;SDS011;12308;50.948;4.706;2022-09-16T05:41:08;7.72;;;1.13;;
24145;SDS011;12308;50.948;4.706;2022-09-16T05:43:35;7.20;;;1.17;;
24145;SDS011;12308;50.948;4.706;2022-09-16T05:46:01;19.02;;;1.35;;
24145;SDS011;12308;50.948;4.706;2022-09-16T05:48:27;8.95;;;0.82;;
24145;SDS011;12308;50.948;4.706;2022-09-16T05:50:54;2.50;;;0.70;;
24145;SDS011;12308;50.948;4.706;2022-09-16T05:53:20;5.28;;;0.70;;
24145;SDS011;12308;50.948;4.706;2022-09-16T05:55:57;6.18;;;1.00;;
24145;SDS011;12308;50.948;4.706;2022-09-16T05:58:23;4.65;;;1.13;;
24145;SDS011;12308;50.948;4.706;2022-09-16T06:00:49;4.45;;;0.75;;
24145;SDS011;12308;50.948;4.706;2022-09-16T06:03:15;6.22;;;1.20;;
24145;SDS011;12308;50.948;4.706;2022-09-16T06:05:41;7.72;;;1.00;;
24145;SDS011;12308;50.948;4.706;2022-09-16T06:08:06;5.72;;;1.15;;
24145;SDS011;12308;50.948;4.706;2022-09-16T06:10:41;6.43;;;1.10;;
24145;SDS011;12308;50.948;4.706;2022-09-16T06:13:07;7.00;;;1.27;;
24145;SDS011;12308;50.948;4.706;2022-09-16T06:15:32;5.43;;;1.15;;
24145;SDS011;12308;50.948;4.706;2022-09-16T06:17:59;4.55;;;0.90;;
24145;SDS011;12308;50.948;4.706;2022-09-16T06:20:25;5.60;;;1.08;;
24145;SDS011;12308;50.948;4.706;2022-09-16T06:22:51;3.85;;;1.20;;
24145;SDS011;12308;50.948;4.706;2022-09-16T06:25:17;5.20;;;1.08;;
24145;SDS011;12308;50.948;4.706;2022-09-16T06:27:42;7.22;;;1.25;;
24145;SDS011;12308;50.948;4.706;2022-09-16T06:30:08;8.90;;;1.70;;
24145;SDS011;12308;50.948;4.706;2022-09-16T06:32:34;8.07;;;1.55;;
24145;SDS011;12308;50.948;4.706;2022-09-16T06:35:00;8.45;;;1.38;;
24145;SDS011;12308;50.948;4.706;2022-09-16T06:37:25;4.10;;;1.30;;
24145;SDS011;12308;50.948;4.706;2022-09-16T06:39:51;7.40;;;1.50;;
24145;SDS011;12308;50.948;4.706;2022-09-16T06:42:17;9.30;;;1.23;;
24145;SDS011;12308;50.948;4.706;2022-09-16T06:44:42;5.65;;;1.10;;
24145;SDS011;12308;50.948;4.706;2022-09-16T06:47:08;6.43;;;1.60;;
24145;SDS011;12308;50.948;4.706;2022-09-16T06:49:34;4.65;;;1.40;;
24145;SDS011;12308;50.948;4.706;2022-09-16T06:51:59;9.48;;;1.50;;
24145;SDS011;12308;50.948;4.706;2022-09-16T06:54:25;3.45;;;1.10;;
24145;SDS011;12308;50.948;4.706;2022-09-16T06:56:51;7.68;;;1.38;;
24145;SDS011;12308;50.948;4.706;2022-09-16T06:59:17;5.70;;;1.20;;
24145;SDS011;12308;50.948;4.706;2022-09-16T07:01:42;7.35;;;1.10;;
24145;SDS011;12308;50.948;4.706;2022-09-16T07:04:08;5.93;;;1.10;;
24145;SDS011;12308;50.948;4.706;2022-09-16T07:06:37;7.45;;;1.40;;
24145;SDS011;12308;50.948;4.706;2022-09-16T07:09:03;9.73;;;1.10;;
24145;SDS011;12308;50.948;4.706;2022-09-16T07:11:28;5.63;;;1.23;;
24145;SDS011;12308;50.948;4.706;2022-09-16T07:13:54;5.80;;;1.52;;
24145;SDS011;12308;50.948;4.706;2022-09-16T07:16:21;7.05;;;1.52;;
24145;SDS011;12308;50.948;4.706;2022-09-16T07:18:51;5.35;;;1.40;;
24145;SDS011;12308;50.948;4.706;2022-09-16T07:21:22;3.67;;;1.00;;
24145;SDS011;12308;50.948;4.706;2022-09-16T07:23:57;4.43;;;1.27;;
24145;SDS011;12308;50.948;4.706;2022-09-16T07:26:25;4.13;;;0.93;;
24145;SDS011;12308;50.948;4.706;2022-09-16T07:28:52;3.90;;;0.93;;
24145;SDS011;12308;50.948;4.706;2022-09-16T07:31:22;6.78;;;1.63;;
24145;SDS011;12308;50.948;4.706;2022-09-16T07:33:50;4.47;;;1.10;;
24145;SDS011;12308;50.948;4.706;2022-09-16T07:36:18;8.73;;;1.33;;
24145;SDS011;12308;50.948;4.706;2022-09-16T07:38:45;6.35;;;1.30;;
24145;SDS011;12308;50.948;4.706;2022-09-16T07:41:12;7.72;;;1.38;;
24145;SDS011;12308;50.948;4.706;2022-09-16T07:43:40;7.57;;;1.52;;
24145;SDS011;12308;50.948;4.706;2022-09-16T07:46:07;7.00;;;1.63;;
24145;SDS011;12308;50.948;4.706;2022-09-16T07:48:34;5.53;;;1.40;;
24145;SDS011;12308;50.948;4.706;2022-09-16T07:51:02;7.10;;;2.13;;
24145;SDS011;12308;50.948;4.706;2022-09-16T07:53:31;9.57;;;2.30;;
24145;SDS011;12308;50.948;4.706;2022-09-16T07:56:16;6.05;;;2.08;;
24145;SDS011;12308;50.948;4.706;2022-09-16T07:58:44;13.15;;;1.92;;
24145;SDS011;12308;50.948;4.706;2022-09-16T08:01:11;8.98;;;1.80;;
24145;SDS011;12308;50.948;4.706;2022-09-16T08:03:39;5.88;;;1.90;;
24145;SDS011;12308;50.948;4.706;2022-09-16T08:06:06;8.70;;;2.30;;
24145;SDS011;12308;50.948;4.706;2022-09-16T08:08:37;9.30;;;2.45;;
24145;SDS011;12308;50.948;4.706;2022-09-16T08:11:03;11.60;;;2.75;;
24145;SDS011;12308;50.948;4.706;2022-09-16T08:13:30;8.88;;;2.55;;
24145;SDS011;12308;50.948;4.706;2022-09-16T08:16:02;13.45;;;2.90;;
24145;SDS011;12308;50.948;4.706;2022-09-16T08:18:32;15.18;;;2.95;;
24145;SDS011;12308;50.948;4.706;2022-09-16T08:21:03;12.05;;;3.40;;
24145;SDS011;12308;50.948;4.706;2022-09-16T08:23:33;12.93;;;3.35;;
24145;SDS011;12308;50.948;4.706;2022-09-16T08:26:00;12.35;;;3.22;;
24145;SDS011;12308;50.948;4.706;2022-09-16T08:28:27;7.68;;;3.50;;
24145;SDS011;12308;50.948;4.706;2022-09-16T08:30:53;11.95;;;2.90;;
24145;SDS011;12308;50.948;4.706;2022-09-16T08:33:22;13.55;;;3.38;;
24145;SDS011;12308;50.948;4.706;2022-09-16T08:36:03;11.98;;;3.13;;
24145;SDS011;12308;50.948;4.706;2022-09-16T08:38:32;13.77;;;3.10;;
24145;SDS011;12308;50.948;4.706;2022-09-16T08:49:35;9.45;;;3.20;;
24145;SDS011;12308;50.948;4.706;2022-09-16T08:52:08;13.43;;;2.40;;
24145;SDS011;12308;50.948;4.706;2022-09-16T08:54:42;7.78;;;2.50;;
24145;SDS011;12308;50.948;4.706;2022-09-16T08:57:16;9.82;;;2.63;;
24145;SDS011;12308;50.948;4.706;2022-09-16T08:59:47;11.20;;;1.98;;
24145;SDS011;12308;50.948;4.706;2022-09-16T09:04:48;8.18;;;1.67;;
24145;SDS011;12308;50.948;4.706;2022-09-16T09:07:49;9.60;;;2.10;;
24145;SDS011;12308;50.948;4.706;2022-09-16T09:10:27;8.07;;;2.00;;
24145;SDS011;12308;50.948;4.706;2022-09-16T09:15:58;11.98;;;1.73;;
24145;SDS011;12308;50.948;4.706;2022-09-16T09:24:06;6.30;;;1.80;;
24145;SDS011;12308;50.948;4.706;2022-09-16T09:26:57;11.10;;;1.80;;
24145;SDS011;12308;50.948;4.706;2022-09-16T09:30:08;11.73;;;2.00;;
24145;SDS011;12308;50.948;4.706;2022-09-16T09:41:21;4.80;;;1.23;;
24145;SDS011;12308;50.948;4.706;2022-09-16T09:46:32;6.80;;;1.40;;
24145;SDS011;12308;50.948;4.706;2022-09-16T09:52:17;7.95;;;1.15;;
24145;SDS011;12308;50.948;4.706;2022-09-16T09:54:52;12.52;;;1.30;;
24145;SDS011;12308;50.948;4.706;2022-09-16T09:57:38;5.63;;;1.35;;
24145;SDS011;12308;50.948;4.706;2022-09-16T10:00:13;2.92;;;1.27;;
24145;SDS011;12308;50.948;4.706;2022-09-16T10:02:42;5.53;;;1.35;;
24145;SDS011;12308;50.948;4.706;2022-09-16T10:05:20;11.27;;;1.63;;
24145;SDS011;12308;50.948;4.706;2022-09-16T10:07:51;6.85;;;1.10;;
24145;SDS011;12308;50.948;4.706;2022-09-16T10:10:24;8.70;;;1.17;;
24145;SDS011;12308;50.948;4.706;2022-09-16T10:12:51;4.82;;;1.10;;
24145;SDS011;12308;50.948;4.706;2022-09-16T10:15:28;4.90;;;1.00;;
24145;SDS011;12308;50.948;4.706;2022-09-16T10:17:55;8.88;;;1.38;;
24145;SDS011;12308;50.948;4.706;2022-09-16T10:20:26;7.57;;;1.38;;
24145;SDS011;12308;50.948;4.706;2022-09-16T10:23:01;9.63;;;1.40;;
24145;SDS011;12308;50.948;4.706;2022-09-16T10:25:40;8.18;;;1.40;;
24145;SDS011;12308;50.948;4.706;2022-09-16T10:28:17;7.97;;;1.15;;
24145;SDS011;12308;50.948;4.706;2022-09-16T10:30:52;10.48;;;1.40;;
24145;SDS011;12308;50.948;4.706;2022-09-16T10:33:23;6.40;;;0.95;;
24145;SDS011;12308;50.948;4.706;2022-09-16T10:35:58;6.18;;;0.80;;
24145;SDS011;12308;50.948;4.706;2022-09-16T10:38:38;6.72;;;0.75;;
24145;SDS011;12308;50.948;4.706;2022-09-16T10:41:23;3.83;;;0.65;;
24145;SDS011;12308;50.948;4.706;2022-09-16T10:43:58;2.92;;;0.60;;
24145;SDS011;12308;50.948;4.706;2022-09-16T10:46:48;2.53;;;1.00;;
24145;SDS011;12308;50.948;4.706;2022-09-16T10:49:21;4.32;;;0.90;;
24145;SDS011;12308;50.948;4.706;2022-09-16T10:51:51;2.72;;;1.02;;
24145;SDS011;12308;50.948;4.706;2022-09-16T10:54:24;2.55;;;1.13;;
24145;SDS011;12308;50.948;4.706;2022-09-16T10:56:52;3.97;;;1.08;;
24145;SDS011;12308;50.948;4.706;2022-09-16T10:59:19;4.72;;;1.10;;
24145;SDS011;12308;50.948;4.706;2022-09-16T11:10:01;7.78;;;1.50;;
24145;SDS011;12308;50.948;4.706;2022-09-16T11:29:09;2.45;;;0.70;;
24145;SDS011;12308;50.948;4.706;2022-09-16T11:31:52;6.15;;;0.70;;
24145;SDS011;12308;50.948;4.706;2022-09-16T11:34:42;5.80;;;0.70;;
24145;SDS011;12308;50.948;4.706;2022-09-16T11:44:53;3.92;;;0.73;;
24145;SDS011;12308;50.948;4.706;2022-09-16T12:00:59;2.28;;;0.82;;
24145;SDS011;12308;50.948;4.706;2022-09-16T12:08:48;2.58;;;0.70;;
24145;SDS011;12308;50.948;4.706;2022-09-16T12:11:36;4.68;;;0.95;;
24145;SDS011;12308;50.948;4.706;2022-09-16T12:14:09;2.60;;;0.63;;
24145;SDS011;12308;50.948;4.706;2022-09-16T12:16:54;5.78;;;1.05;;
24145;SDS011;12308;50.948;4.706;2022-09-16T12:24:44;4.75;;;1.05;;
24145;SDS011;12308;50.948;4.706;2022-09-16T12:32:55;4.57;;;0.80;;
24145;SDS011;12308;50.948;4.706;2022-09-16T12:35:38;5.85;;;0.90;;
24145;SDS011;12308;50.948;4.706;2022-09-16T12:38:16;11.23;;;1.13;;
24145;SDS011;12308;50.948;4.706;2022-09-16T12:43:15;5.10;;;1.10;;
24145;SDS011;12308;50.948;4.706;2022-09-16T12:48:41;4.13;;;0.70;;
24145;SDS011;12308;50.948;4.706;2022-09-16T12:57:06;4.63;;;0.67;;
24145;SDS011;12308;50.948;4.706;2022-09-16T13:02:26;6.38;;;0.80;;
24145;SDS011;12308;50.948;4.706;2022-09-16T13:05:11;3.78;;;0.70;;
24145;SDS011;12308;50.948;4.706;2022-09-16T13:07:42;12.25;;;1.20;;
24145;SDS011;12308;50.948;4.706;2022-09-16T13:10:28;8.75;;;1.40;;
24145;SDS011;12308;50.948;4.706;2022-09-16T13:12:55;7.70;;;1.33;;
24145;SDS011;12308;50.948;4.706;2022-09-16T13:17:51;7.22;;;1.73;;
24145;SDS011;12308;50.948;4.706;2022-09-16T13:25:21;7.13;;;1.33;;
24145;SDS011;12308;50.948;4.706;2022-09-16T13:27:56;6.38;;;1.48;;
24145;SDS011;12308;50.948;4.706;2022-09-16T13:30:30;5.72;;;1.30;;
24145;SDS011;12308;50.948;4.706;2022-09-16T13:35:35;6.38;;;1.60;;
24145;SDS011;12308;50.948;4.706;2022-09-16T13:40:56;13.80;;;1.80;;
24145;SDS011;12308;50.948;4.706;2022-09-16T13:46:04;4.97;;;1.25;;
24145;SDS011;12308;50.948;4.706;2022-09-16T13:48:36;4.05;;;1.08;;
24145;SDS011;12308;50.948;4.706;2022-09-16T13:51:23;8.73;;;1.48;;
24145;SDS011;12308;50.948;4.706;2022-09-16T13:53:49;6.18;;;1.38;;
24145;SDS011;12308;50.948;4.706;2022-09-16T14:07:39;10.30;;;2.05;;
24145;SDS011;12308;50.948;4.706;2022-09-16T14:15:46;8.23;;;1.42;;
24145;SDS011;12308;50.948;4.706;2022-09-16T14:18:20;6.15;;;1.38;;
24145;SDS011;12308;50.948;4.706;2022-09-16T14:23:37;11.38;;;1.42;;
24145;SDS011;12308;50.948;4.706;2022-09-16T14:26:23;5.85;;;1.13;;
24145;SDS011;12308;50.948;4.706;2022-09-16T14:28:48;6.93;;;1.00;;
24145;SDS011;12308;50.948;4.706;2022-09-16T14:31:25;6.22;;;1.15;;
24145;SDS011;12308;50.948;4.706;2022-09-16T14:33:55;8.63;;;1.13;;
24145;SDS011;12308;50.948;4.706;2022-09-16T14:36:26;5.10;;;0.98;;
24145;SDS011;12308;50.948;4.706;2022-09-16T14:41:34;3.38;;;0.60;;
24145;SDS011;12308;50.948;4.706;2022-09-16T14:44:15;5.15;;;0.57;;
24145;SDS011;12308;50.948;4.706;2022-09-16T14:46:45;1.13;;;0.50;;
24145;SDS011;12308;50.948;4.706;2022-09-16T14:49:19;3.70;;;1.25;;
24145;SDS011;12308;50.948;4.706;2022-09-16T14:51:55;3.40;;;0.70;;
24145;SDS011;12308;50.948;4.706;2022-09-16T14:54:24;2.50;;;0.50;;
24145;SDS011;12308;50.948;4.706;2022-09-16T14:57:01;3.13;;;0.65;;
24145;SDS011;12308;50.948;4.706;2022-09-16T14:59:31;2.88;;;0.60;;
24145;SDS011;12308;50.948;4.706;2022-09-16T15:02:03;3.75;;;0.60;;
24145;SDS011;12308;50.948;4.706;2022-09-16T15:04:33;3.22;;;0.60;;
24145;SDS011;12308;50.948;4.706;2022-09-16T15:07:06;0.40;;;0.40;;
24145;SDS011;12308;50.948;4.706;2022-09-16T15:12:15;2.05;;;0.57;;
24145;SDS011;12308;50.948;4.706;2022-09-16T15:14:54;1.98;;;0.47;;
24145;SDS011;12308;50.948;4.706;2022-09-16T15:17:21;2.25;;;0.70;;
24145;SDS011;12308;50.948;4.706;2022-09-16T15:19:56;1.50;;;0.30;;
24145;SDS011;12308;50.948;4.706;2022-09-16T15:24:50;1.67;;;0.50;;
24145;SDS011;12308;50.948;4.706;2022-09-16T15:27:20;1.95;;;0.50;;
24145;SDS011;12308;50.948;4.706;2022-09-16T15:29:48;3.55;;;0.45;;
24145;SDS011;12308;50.948;4.706;2022-09-16T15:32:21;2.80;;;0.55;;
24145;SDS011;12308;50.948;4.706;2022-09-16T15:35:02;2.65;;;0.73;;
24145;SDS011;12308;50.948;4.706;2022-09-16T15:37:35;3.25;;;0.80;;
24145;SDS011;12308;50.948;4.706;2022-09-16T15:40:08;2.17;;;0.40;;
24145;SDS011;12308;50.948;4.706;2022-09-16T15:42:34;3.80;;;0.93;;
24145;SDS011;12308;50.948;4.706;2022-09-16T15:45:01;2.88;;;0.50;;
24145;SDS011;12308;50.948;4.706;2022-09-16T15:47:32;3.47;;;0.70;;
24145;SDS011;12308;50.948;4.706;2022-09-16T15:52:30;3.05;;;0.60;;
24145;SDS011;12308;50.948;4.706;2022-09-16T15:54:59;3.72;;;0.70;;
24145;SDS011;12308;50.948;4.706;2022-09-16T15:57:36;2.73;;;0.57;;
24145;SDS011;12308;50.948;4.706;2022-09-16T16:00:05;2.75;;;0.52;;
24145;SDS011;12308;50.948;4.706;2022-09-16T16:05:09;2.30;;;0.45;;
24145;SDS011;12308;50.948;4.706;2022-09-16T16:07:39;2.30;;;0.70;;
24145;SDS011;12308;50.948;4.706;2022-09-16T16:12:46;3.17;;;0.60;;
24145;SDS011;12308;50.948;4.706;2022-09-16T16:15:23;5.50;;;0.85;;
24145;SDS011;12308;50.948;4.706;2022-09-16T16:18:00;5.75;;;1.15;;
24145;SDS011;12308;50.948;4.706;2022-09-16T16:20:29;4.38;;;0.70;;
24145;SDS011;12308;50.948;4.706;2022-09-16T16:22:58;6.93;;;0.95;;
24145;SDS011;12308;50.948;4.706;2022-09-16T16:25:24;5.32;;;0.70;;
24145;SDS011;12308;50.948;4.706;2022-09-16T16:27:50;3.70;;;0.80;;
24145;SDS011;12308;50.948;4.706;2022-09-16T16:30:16;3.40;;;0.88;;
24145;SDS011;12308;50.948;4.706;2022-09-16T16:32:43;4.30;;;0.88;;
24145;SDS011;12308;50.948;4.706;2022-09-16T16:35:09;6.40;;;1.00;;
24145;SDS011;12308;50.948;4.706;2022-09-16T16:37:34;4.28;;;1.00;;
24145;SDS011;12308;50.948;4.706;2022-09-16T16:40:01;4.18;;;1.02;;
24145;SDS011;12308;50.948;4.706;2022-09-16T16:42:28;5.45;;;1.02;;
24145;SDS011;12308;50.948;4.706;2022-09-16T16:44:53;7.63;;;0.98;;
24145;SDS011;12308;50.948;4.706;2022-09-16T16:47:20;6.45;;;1.17;;
24145;SDS011;12308;50.948;4.706;2022-09-16T16:49:46;5.55;;;0.98;;
24145;SDS011;12308;50.948;4.706;2022-09-16T16:52:12;6.10;;;0.93;;
24145;SDS011;12308;50.948;4.706;2022-09-16T16:54:38;4.82;;;0.90;;
24145;SDS011;12308;50.948;4.706;2022-09-16T16:57:07;4.38;;;1.00;;
24145;SDS011;12308;50.948;4.706;2022-09-16T16:59:33;4.30;;;1.20;;
24145;SDS011;12308;50.948;4.706;2022-09-16T17:01:59;7.03;;;1.00;;
24145;SDS011;12308;50.948;4.706;2022-09-16T17:04:24;4.38;;;0.98;;
24145;SDS011;12308;50.948;4.706;2022-09-16T17:06:50;5.85;;;1.48;;
24145;SDS011;12308;50.948;4.706;2022-09-16T17:09:16;4.55;;;1.27;;
24145;SDS011;12308;50.948;4.706;2022-09-16T17:11:49;7.25;;;1.13;;
24145;SDS011;12308;50.948;4.706;2022-09-16T17:14:17;6.38;;;0.82;;
24145;SDS011;12308;50.948;4.706;2022-09-16T17:16:44;6.55;;;1.00;;
24145;SDS011;12308;50.948;4.706;2022-09-16T17:19:11;9.15;;;1.27;;
24145;SDS011;12308;50.948;4.706;2022-09-16T17:21:37;3.33;;;0.95;;
24145;SDS011;12308;50.948;4.706;2022-09-16T17:24:04;7.65;;;1.30;;
24145;SDS011;12308;50.948;4.706;2022-09-16T17:26:30;5.45;;;1.25;;
24145;SDS011;12308;50.948;4.706;2022-09-16T17:28:56;4.22;;;0.82;;
24145;SDS011;12308;50.948;4.706;2022-09-16T17:31:23;6.18;;;1.33;;
24145;SDS011;12308;50.948;4.706;2022-09-16T17:34:03;5.00;;;0.98;;
24145;SDS011;12308;50.948;4.706;2022-09-16T17:36:31;9.57;;;1.10;;
24145;SDS011;12308;50.948;4.706;2022-09-16T17:38:58;5.47;;;1.00;;
24145;SDS011;12308;50.948;4.706;2022-09-16T17:41:26;8.55;;;1.00;;
24145;SDS011;12308;50.948;4.706;2022-09-16T17:43:52;5.35;;;1.10;;
24145;SDS011;12308;50.948;4.706;2022-09-16T17:46:20;10.27;;;1.40;;
24145;SDS011;12308;50.948;4.706;2022-09-16T17:48:47;7.75;;;1.15;;
24145;SDS011;12308;50.948;4.706;2022-09-16T17:51:14;5.38;;;1.00;;
24145;SDS011;12308;50.948;4.706;2022-09-16T17:53:40;3.78;;;1.00;;
24145;SDS011;12308;50.948;4.706;2022-09-16T17:56:07;5.65;;;1.08;;
24145;SDS011;12308;50.948;4.706;2022-09-16T17:58:38;7.47;;;1.20;;
24145;SDS011;12308;50.948;4.706;2022-09-16T18:01:15;4.35;;;1.10;;
24145;SDS011;12308;50.948;4.706;2022-09-16T18:03:43;4.80;;;1.20;;
24145;SDS011;12308;50.948;4.706;2022-09-16T18:06:12;5.90;;;0.93;;
24145;SDS011;12308;50.948;4.706;2022-09-16T18:08:42;6.18;;;1.65;;
24145;SDS011;12308;50.948;4.706;2022-09-16T18:11:09;9.13;;;1.25;;
24145;SDS011;12308;50.948;4.706;2022-09-16T18:13:36;7.90;;;1.42;;
24145;SDS011;12308;50.948;4.706;2022-09-16T18:16:07;3.50;;;1.15;;
24145;SDS011;12308;50.948;4.706;2022-09-16T18:18:35;9.68;;;1.23;;
24145;SDS011;12308;50.948;4.706;2022-09-16T18:21:03;9.18;;;1.23;;
24145;SDS011;12308;50.948;4.706;2022-09-16T18:23:30;9.15;;;1.80;;
24145;SDS011;12308;50.948;4.706;2022-09-16T18:25:56;9.02;;;1.73;;
24145;SDS011;12308;50.948;4.706;2022-09-16T18:28:27;5.55;;;1.48;;
24145;SDS011;12308;50.948;4.706;2022-09-16T18:33:54;13.20;;;2.15;;
24145;SDS011;12308;50.948;4.706;2022-09-16T18:36:21;10.73;;;1.90;;